Time;durP1;ratioP1;P1;durP2;ratioP2;P2;SDS_P1;SDS_P2;PMS_P1;PMS_P2;Temp;Humidity;BMP_temperature;BMP_pressure;BME280_temperature;BME280_humidity;BME280_pressure;Samples;Min_cycle;Max_cycle;Signal;HPM_P1;HPM_P2
2023/01/19 00:01:18;;;;;;;1.63;1.50;;;19.50;38.80;;;;;;4954704;28;20474;-84
2023/01/19 00:03:44;;;;;;;1.43;1.33;;;19.50;38.80;;;;;;4956086;28;20462;-84
2023/01/19 00:06:09;;;;;;;1.50;1.40;;;19.50;38.80;;;;;;4952044;28;20287;-84
2023/01/19 00:08:35;;;;;;;1.70;1.60;;;19.50;38.80;;;;;;4955328;28;20227;-84
2023/01/19 00:11:01;;;;;;;1.57;1.47;;;19.50;38.80;;;;;;4949752;28;20677;-85
2023/01/19 00:13:27;;;;;;;1.40;1.30;;;19.50;38.80;;;;;;4952050;28;20225;-84
2023/01/19 00:15:53;;;;;;;1.60;1.50;;;19.50;38.80;;;;;;4959460;28;21033;-84
2023/01/19 00:18:18;;;;;;;1.93;1.60;;;19.50;38.80;;;;;;4954969;28;20446;-84
2023/01/19 00:20:45;;;;;;;1.60;1.50;;;19.50;38.80;;;;;;4956078;28;20225;-84
2023/01/19 00:23:11;;;;;;;1.20;1.10;;;19.50;38.80;;;;;;4948938;28;20236;-84
2023/01/19 00:25:41;;;;;;;1.30;1.20;;;19.50;38.80;;;;;;4955626;28;20943;-85
2023/01/19 00:28:07;;;;;;;1.40;1.13;;;19.50;38.80;;;;;;4961188;28;20443;-84
2023/01/19 00:30:33;;;;;;;1.40;1.30;;;19.50;38.80;;;;;;4940325;28;20475;-84
2023/01/19 00:32:58;;;;;;;1.57;1.47;;;19.50;38.80;;;;;;4936627;28;20479;-84
2023/01/19 00:35:24;;;;;;;1.50;1.40;;;19.50;38.80;;;;;;4950149;28;20226;-84
2023/01/19 00:37:50;;;;;;;1.37;1.27;;;19.50;38.80;;;;;;4944784;28;20952;-84
2023/01/19 00:40:16;;;;;;;1.30;1.20;;;19.50;38.80;;;;;;4956495;28;20240;-84
2023/01/19 00:42:43;;;;;;;1.13;1.03;;;19.50;38.80;;;;;;4959309;28;20463;-84
2023/01/19 00:45:17;;;;;;;1.20;1.10;;;19.50;38.80;;;;;;4939642;28;20447;-84
2023/01/19 00:47:43;;;;;;;1.20;1.10;;;19.50;38.80;;;;;;4949355;28;21044;-84
2023/01/19 00:50:11;;;;;;;1.47;1.37;;;19.50;38.80;;;;;;4946789;28;20547;-84
2023/01/19 00:52:37;;;;;;;1.70;1.60;;;19.50;39.50;;;;;;4958277;28;20524;-84
2023/01/19 00:55:04;;;;;;;1.60;1.50;;;19.50;38.80;;;;;;4941750;28;20470;-84
2023/01/19 00:57:29;;;;;;;1.40;1.30;;;19.50;38.80;;;;;;4947991;28;21101;-84
2023/01/19 00:59:55;;;;;;;1.50;1.40;;;19.50;38.80;;;;;;4940834;28;20542;-84
2023/01/19 01:02:20;;;;;;;1.40;1.30;;;19.50;38.80;;;;;;4939184;28;20225;-84
2023/01/19 01:04:46;;;;;;;1.60;1.50;;;19.50;38.80;;;;;;4940155;28;20221;-85
2023/01/19 01:07:11;;;;;;;1.33;1.23;;;19.50;38.80;;;;;;4948357;28;20228;-85
2023/01/19 01:09:37;;;;;;;1.80;1.67;;;19.50;38.80;;;;;;4958942;28;20272;-85
2023/01/19 01:12:03;;;;;;;1.30;1.20;;;19.50;38.80;;;;;;4959118;28;20236;-84
2023/01/19 01:14:29;;;;;;;1.37;1.27;;;19.50;38.80;;;;;;4951604;28;20291;-85
2023/01/19 01:16:54;;;;;;;1.63;1.53;;;19.40;38.70;;;;;;4950646;28;20228;-85
2023/01/19 01:19:20;;;;;;;1.33;1.23;;;19.50;38.80;;;;;;4943124;28;20260;-85
2023/01/19 01:21:46;;;;;;;1.50;1.37;;;19.50;38.80;;;;;;4942363;28;20240;-84
2023/01/19 01:24:11;;;;;;;1.47;1.37;;;19.50;38.80;;;;;;4949575;28;20304;-85
2023/01/19 01:26:37;;;;;;;1.60;1.50;;;19.50;38.80;;;;;;4957255;28;20309;-85
2023/01/19 01:29:05;;;;;;;1.30;1.20;;;19.50;38.80;;;;;;4957516;28;20271;-84
2023/01/19 01:31:30;;;;;;;1.60;1.50;;;19.50;38.80;;;;;;4953683;28;20239;-84
2023/01/19 01:33:56;;;;;;;1.20;1.10;;;19.50;38.80;;;;;;4949623;28;20824;-84
2023/01/19 01:36:21;;;;;;;1.50;1.40;;;19.50;38.80;;;;;;4957041;28;20224;-84
2023/01/19 01:38:47;;;;;;;1.80;1.70;;;19.50;38.80;;;;;;4958912;28;20593;-84
2023/01/19 01:41:13;;;;;;;4.13;1.40;;;19.40;38.70;;;;;;4956611;28;20264;-84
2023/01/19 01:43:47;;;;;;;1.40;1.30;;;19.50;38.80;;;;;;4957638;28;20311;-84
2023/01/19 01:46:14;;;;;;;2.03;1.17;;;19.40;38.70;;;;;;4950405;28;20233;-84
2023/01/19 01:48:48;;;;;;;1.13;1.03;;;19.40;38.70;;;;;;4957103;28;20482;-85
2023/01/19 01:51:40;;;;;;;1.37;1.27;;;19.50;38.80;;;;;;4947838;28;21380;-85
2023/01/19 01:54:15;;;;;;;1.40;1.30;;;19.50;39.60;;;;;;4920392;28;20432;-85
2023/01/19 01:56:51;;;;;;;1.33;1.23;;;19.50;38.80;;;;;;4935323;28;20456;-85
2023/01/19 01:59:25;;;;;;;1.20;1.10;;;19.40;38.70;;;;;;4942889;28;20463;-85
2023/01/19 02:04:45;;;;;;;1.43;1.33;;;19.40;38.70;;;;;;4952807;28;20466;-85
2023/01/19 02:15:29;;;;;;;1.40;1.23;;;19.40;38.70;;;;;;4959577;28;21192;-84
2023/01/19 02:17:57;;;;;;;1.33;1.23;;;19.40;38.70;;;;;;4956053;28;20429;-84
2023/01/19 02:20:26;;;;;;;1.30;1.20;;;19.40;38.70;;;;;;4961005;28;20304;-85
2023/01/19 02:22:55;;;;;;;1.17;1.07;;;19.40;38.70;;;;;;4956003;28;20453;-84
2023/01/19 02:25:20;;;;;;;1.30;1.20;;;19.40;39.20;;;;;;4962727;28;20433;-84
2023/01/19 02:27:46;;;;;;;1.30;1.20;;;19.40;38.70;;;;;;4943459;28;20448;-85
2023/01/19 02:30:13;;;;;;;1.30;1.20;;;19.40;38.70;;;;;;4947277;28;20233;-84
2023/01/19 02:32:38;;;;;;;1.30;1.20;;;19.40;38.70;;;;;;4941404;28;21685;-85
2023/01/19 02:35:05;;;;;;;1.20;1.10;;;19.40;38.70;;;;;;4945693;28;20950;-84
2023/01/19 02:37:35;;;;;;;1.10;1.10;;;19.40;38.70;;;;;;4947628;28;20222;-84
2023/01/19 02:40:02;;;;;;;2.60;1.30;;;19.40;38.70;;;;;;4953126;28;20467;-84
2023/01/19 02:42:36;;;;;;;1.47;1.37;;;19.40;38.70;;;;;;4955767;28;20558;-83
2023/01/19 02:45:05;;;;;;;1.40;1.30;;;19.40;38.70;;;;;;4954727;28;20592;-84
2023/01/19 02:47:46;;;;;;;1.53;1.43;;;19.40;38.70;;;;;;4952158;28;20658;-84
2023/01/19 02:50:35;;;;;;;1.50;1.40;;;19.40;38.70;;;;;;4945773;28;20465;-84
2023/01/19 02:53:18;;;;;;;1.30;1.20;;;19.40;38.70;;;;;;4962213;28;20476;-84
2023/01/19 02:56:06;;;;;;;1.30;1.20;;;19.40;38.70;;;;;;4960748;28;20454;-85
2023/01/19 02:58:46;;;;;;;1.20;1.10;;;19.40;38.70;;;;;;4961177;28;20493;-84
2023/01/19 03:01:17;;;;;;;1.20;1.10;;;19.40;38.70;;;;;;4960707;28;20989;-85
2023/01/19 03:03:57;;;;;;;1.37;1.27;;;19.40;38.70;;;;;;4960964;28;20557;-85
2023/01/19 03:06:43;;;;;;;1.17;1.07;;;19.40;38.70;;;;;;4961842;28;20569;-84
2023/01/19 03:09:33;;;;;;;1.50;1.40;;;19.40;38.70;;;;;;4943058;28;20449;-85
2023/01/19 03:12:08;;;;;;;1.20;1.10;;;19.40;38.70;;;;;;4942535;28;20486;-84
2023/01/19 03:14:40;;;;;;;1.20;1.10;;;19.40;38.70;;;;;;4951756;28;20557;-84
2023/01/19 03:17:08;;;;;;;1.70;1.60;;;19.40;38.70;;;;;;4951852;28;20434;-84
2023/01/19 03:19:40;;;;;;;1.23;1.13;;;19.40;38.70;;;;;;4942218;28;20481;-84
2023/01/19 03:22:12;;;;;;;1.20;1.10;;;19.40;38.70;;;;;;4952482;28;20421;-84
2023/01/19 03:24:41;;;;;;;0.90;0.90;;;19.40;38.70;;;;;;4957762;28;20796;-85
2023/01/19 03:27:22;;;;;;;1.30;1.20;;;19.40;38.70;;;;;;4946663;28;20450;-84
2023/01/19 03:29:52;;;;;;;1.27;1.17;;;19.40;38.70;;;;;;4948121;28;20458;-84
2023/01/19 03:32:21;;;;;;;1.23;1.13;;;19.40;38.70;;;;;;4947967;28;20453;-84
2023/01/19 03:34:49;;;;;;;1.40;1.30;;;19.40;38.70;;;;;;4958539;28;20449;-84
2023/01/19 03:37:17;;;;;;;1.10;1.00;;;19.40;38.70;;;;;;4963058;28;20470;-84
2023/01/19 03:39:43;;;;;;;1.10;1.00;;;19.40;38.70;;;;;;4954822;28;21013;-84
2023/01/19 03:42:13;;;;;;;1.20;1.10;;;19.40;38.70;;;;;;4953191;28;20455;-85
2023/01/19 03:44:41;;;;;;;1.30;1.20;;;19.40;38.70;;;;;;4949669;28;20501;-85
2023/01/19 03:47:08;;;;;;;1.10;1.00;;;19.40;38.70;;;;;;4957703;28;20982;-84
2023/01/19 03:49:36;;;;;;;1.40;1.30;;;19.40;38.70;;;;;;4954428;28;20536;-84
2023/01/19 03:52:02;;;;;;;0.90;0.90;;;19.40;38.70;;;;;;4961903;28;20452;-84
2023/01/19 03:54:27;;;;;;;1.30;1.20;;;19.40;38.70;;;;;;4954915;28;20462;-85
2023/01/19 03:56:53;;;;;;;1.30;1.20;;;19.40;38.70;;;;;;4954682;28;20587;-84
2023/01/19 03:59:20;;;;;;;1.20;1.10;;;19.40;38.70;;;;;;4959478;28;20220;-84
2023/01/19 04:01:46;;;;;;;1.10;1.00;;;19.40;38.70;;;;;;4958051;28;20324;-84
2023/01/19 04:04:12;;;;;;;1.33;1.23;;;19.40;38.70;;;;;;4958341;28;20474;-84
2023/01/19 04:06:38;;;;;;;1.00;1.00;;;19.40;38.70;;;;;;4957625;28;20489;-84
2023/01/19 04:09:04;;;;;;;1.30;1.20;;;19.40;38.70;;;;;;4961145;28;20233;-84
2023/01/19 04:11:29;;;;;;;1.40;1.20;;;19.40;38.70;;;;;;4960091;28;20461;-84
2023/01/19 04:13:55;;;;;;;1.07;1.00;;;19.40;38.70;;;;;;4957319;28;20240;-84
2023/01/19 04:16:22;;;;;;;1.17;1.07;;;19.40;38.70;;;;;;4961159;28;20956;-84
2023/01/19 04:18:49;;;;;;;1.20;1.10;;;19.40;38.70;;;;;;4956695;28;20229;-84
2023/01/19 04:21:15;;;;;;;1.20;1.10;;;19.40;38.70;;;;;;4961824;28;20458;-84
2023/01/19 04:23:40;;;;;;;1.20;1.10;;;19.40;38.70;;;;;;4941140;28;20521;-84
2023/01/19 04:26:07;;;;;;;1.80;1.70;;;19.40;38.70;;;;;;4957763;28;20451;-84
2023/01/19 04:28:35;;;;;;;1.30;1.20;;;19.40;38.70;;;;;;4958574;28;20857;-84
2023/01/19 04:31:01;;;;;;;1.40;1.30;;;19.40;38.70;;;;;;4962769;28;20433;-84
2023/01/19 04:33:28;;;;;;;1.40;1.30;;;19.40;38.70;;;;;;4959754;28;20457;-84
2023/01/19 04:35:54;;;;;;;1.10;1.00;;;19.40;38.70;;;;;;4957671;28;20899;-84
2023/01/19 04:38:21;;;;;;;1.20;1.10;;;19.40;38.70;;;;;;4955863;28;20463;-84
2023/01/19 04:40:48;;;;;;;1.20;1.10;;;19.40;38.70;;;;;;4958385;28;20479;-84
2023/01/19 04:43:14;;;;;;;1.17;1.07;;;19.40;38.60;;;;;;4963138;28;20560;-85
2023/01/19 04:45:40;;;;;;;1.20;1.10;;;19.40;38.60;;;;;;4958195;28;20438;-85
2023/01/19 04:48:05;;;;;;;1.30;1.20;;;19.40;38.60;;;;;;4961633;28;20410;-84
2023/01/19 04:50:31;;;;;;;1.20;1.10;;;19.40;38.60;;;;;;4961293;28;20588;-84
2023/01/19 04:52:57;;;;;;;1.20;1.10;;;19.40;38.60;;;;;;4963166;28;20707;-84
2023/01/19 04:55:23;;;;;;;1.20;1.10;;;19.40;38.60;;;;;;4944431;28;20433;-84
2023/01/19 04:57:49;;;;;;;2.30;1.00;;;19.40;38.50;;;;;;4960817;28;20338;-84
2023/01/19 05:00:15;;;;;;;1.33;1.23;;;19.40;38.50;;;;;;4958368;28;20449;-85
2023/01/19 05:02:42;;;;;;;1.20;1.10;;;19.50;38.60;;;;;;4955670;28;20231;-85
2023/01/19 05:05:08;;;;;;;1.00;1.00;;;19.50;38.50;;;;;;4962203;28;20535;-84
2023/01/19 05:07:34;;;;;;;1.20;1.00;;;19.50;38.60;;;;;;4957907;28;20467;-84
2023/01/19 05:09:59;;;;;;;1.17;0.90;;;19.50;38.50;;;;;;4963139;28;20594;-84
2023/01/19 05:12:25;;;;;;;1.00;0.90;;;19.50;38.50;;;;;;4956789;28;20236;-84
2023/01/19 05:14:51;;;;;;;1.10;1.00;;;19.50;38.30;;;;;;4956437;28;20304;-85
2023/01/19 05:17:16;;;;;;;1.20;1.10;;;19.50;38.30;;;;;;4959750;28;20271;-85
2023/01/19 05:19:42;;;;;;;1.10;1.00;;;19.60;38.40;;;;;;4958696;28;20688;-85
2023/01/19 05:22:08;;;;;;;0.97;0.90;;;19.60;38.30;;;;;;4962830;28;20302;-85
2023/01/19 05:24:33;;;;;;;2.10;1.10;;;19.60;38.30;;;;;;4962144;28;21544;-85
2023/01/19 05:26:59;;;;;;;1.07;0.97;;;19.60;38.20;;;;;;4961008;28;20239;-85
2023/01/19 05:29:24;;;;;;;3.67;1.20;;;19.60;38.30;;;;;;4955395;28;20224;-84
2023/01/19 05:31:50;;;;;;;1.20;1.10;;;19.60;38.30;;;;;;4950820;28;20248;-85
2023/01/19 05:34:16;;;;;;;1.17;1.07;;;19.60;38.30;;;;;;4937404;28;21182;-86
2023/01/19 05:36:41;;;;;;;1.03;0.97;;;19.60;38.30;;;;;;4951597;28;20229;-86
2023/01/19 05:39:07;;;;;;;1.20;1.10;;;19.60;38.30;;;;;;4958379;28;20450;-85
2023/01/19 05:41:33;;;;;;;1.77;0.90;;;19.60;38.30;;;;;;4939657;28;20244;-85
2023/01/19 05:43:59;;;;;;;1.10;1.00;;;19.60;38.30;;;;;;4940003;28;20430;-86
2023/01/19 05:46:25;;;;;;;1.30;1.20;;;19.60;38.30;;;;;;4939919;28;20212;-86
2023/01/19 05:48:51;;;;;;;1.10;1.00;;;19.60;38.30;;;;;;4944989;28;20603;-86
2023/01/19 05:51:16;;;;;;;1.20;1.10;;;19.60;38.30;;;;;;4952130;28;20482;-86
2023/01/19 05:53:42;;;;;;;1.00;0.87;;;19.60;38.20;;;;;;4948847;28;20330;-84
2023/01/19 05:56:09;;;;;;;1.10;1.00;;;19.60;38.30;;;;;;4953276;28;20272;-85
2023/01/19 05:58:38;;;;;;;1.33;1.23;;;19.60;38.20;;;;;;4937072;28;20236;-85
2023/01/19 06:01:05;;;;;;;1.00;1.00;;;19.60;38.30;;;;;;4946832;28;20530;-85
2023/01/19 06:03:32;;;;;;;1.20;1.10;;;19.50;38.10;;;;;;4944713;28;20508;-86
2023/01/19 06:05:58;;;;;;;1.20;1.10;;;19.60;38.20;;;;;;4936498;28;20911;-85
2023/01/19 06:08:24;;;;;;;1.27;1.17;;;19.50;38.20;;;;;;4947593;28;20445;-86
2023/01/19 06:10:49;;;;;;;1.07;1.03;;;19.60;38.20;;;;;;4958298;28;20241;-86
2023/01/19 06:13:16;;;;;;;1.07;0.97;;;19.60;38.20;;;;;;4954060;28;20705;-89
2023/01/19 06:15:42;;;;;;;1.40;1.30;;;19.60;38.20;;;;;;4955843;28;20221;-85
2023/01/19 06:18:08;;;;;;;1.27;1.10;;;19.60;38.20;;;;;;4954322;28;20476;-86
2023/01/19 06:20:34;;;;;;;1.00;0.90;;;19.50;38.10;;;;;;4959661;28;20532;-86
2023/01/19 06:23:00;;;;;;;1.20;1.10;;;19.60;38.20;;;;;;4946434;28;20560;-87
2023/01/19 06:25:26;;;;;;;1.63;1.50;;;19.60;38.20;;;;;;4963572;28;20429;-85
2023/01/19 06:27:51;;;;;;;1.20;1.10;;;19.60;38.20;;;;;;4962974;28;20798;-85
2023/01/19 06:30:17;;;;;;;1.43;1.10;;;19.50;38.10;;;;;;4957526;28;20229;-85
2023/01/19 06:32:43;;;;;;;1.20;1.10;;;19.50;38.10;;;;;;4961473;28;20271;-85
2023/01/19 06:35:09;;;;;;;1.30;1.20;;;19.50;38.10;;;;;;4966478;28;21031;-85
2023/01/19 06:37:34;;;;;;;1.30;1.20;;;19.50;38.10;;;;;;4963159;28;20229;-86
2023/01/19 06:40:00;;;;;;;1.23;1.13;;;19.50;38.20;;;;;;4959672;28;21089;-85
2023/01/19 06:42:25;;;;;;;1.30;1.20;;;19.50;38.10;;;;;;4944801;28;20268;-85
2023/01/19 06:44:51;;;;;;;1.10;1.00;;;19.50;38.10;;;;;;4957980;28;20323;-85
2023/01/19 06:47:16;;;;;;;2.20;1.10;;;19.50;38.20;;;;;;4966437;28;20228;-85
2023/01/19 06:49:42;;;;;;;1.80;1.00;;;19.50;38.20;;;;;;4962056;28;20728;-85
2023/01/19 06:52:14;;;;;;;1.00;0.90;;;19.50;38.20;;;;;;4964940;28;20681;-87
2023/01/19 06:54:42;;;;;;;2.07;1.10;;;19.50;38.20;;;;;;4963429;28;20512;-87
2023/01/19 06:57:07;;;;;;;1.30;1.00;;;19.50;38.20;;;;;;4954139;28;20433;-85
2023/01/19 06:59:33;;;;;;;2.00;1.30;;;19.50;38.20;;;;;;4943040;28;20457;-86
2023/01/19 07:01:58;;;;;;;1.07;0.97;;;19.50;38.20;;;;;;4959867;28;20226;-85
2023/01/19 07:04:25;;;;;;;1.10;1.00;;;19.50;38.20;;;;;;4962024;28;20228;-87
2023/01/19 07:06:51;;;;;;;1.20;1.10;;;19.50;38.20;;;;;;4953421;28;20578;-86
2023/01/19 07:09:16;;;;;;;1.00;1.00;;;19.50;38.20;;;;;;4946898;28;20545;-88
2023/01/19 07:11:42;;;;;;;1.07;0.97;;;19.50;38.10;;;;;;4959940;28;20248;-89
2023/01/19 07:14:07;;;;;;;1.10;1.00;;;19.50;38.20;;;;;;4960485;28;20235;-88
2023/01/19 07:16:33;;;;;;;1.30;1.10;;;19.50;38.20;;;;;;4964920;28;20318;-87
2023/01/19 07:18:59;;;;;;;1.10;1.00;;;19.50;38.20;;;;;;4963664;28;20232;-88
2023/01/19 07:21:24;;;;;;;1.20;1.10;;;19.50;38.20;;;;;;4963666;28;20311;-87
2023/01/19 07:23:51;;;;;;;1.47;1.17;;;19.50;38.20;;;;;;4962092;28;20224;-87
2023/01/19 07:26:19;;;;;;;1.13;1.07;;;19.50;38.20;;;;;;4964129;28;20241;-86
2023/01/19 07:28:48;;;;;;;1.47;1.00;;;19.50;38.20;;;;;;4961861;28;20457;-86
2023/01/19 07:31:14;;;;;;;1.23;1.00;;;19.50;38.20;;;;;;4963855;28;20454;-87
2023/01/19 07:33:39;;;;;;;0.97;0.97;;;19.50;38.20;;;;;;4956274;28;20648;-87
2023/01/19 07:36:05;;;;;;;0.90;0.80;;;19.50;38.20;;;;;;4948265;28;20680;-87
2023/01/19 07:38:31;;;;;;;0.93;0.83;;;19.50;38.20;;;;;;4960928;28;20237;-87
2023/01/19 07:41:04;;;;;;;1.37;0.97;;;19.50;38.20;;;;;;4945236;28;20244;-86
2023/01/19 07:43:30;;;;;;;1.47;1.10;;;19.50;38.20;;;;;;4958655;28;20735;-89
2023/01/19 07:46:00;;;;;;;1.43;1.33;;;19.50;38.20;;;;;;4961599;28;20463;-88
2023/01/19 07:48:26;;;;;;;1.77;1.10;;;19.50;38.20;;;;;;4963126;28;20312;-89
2023/01/19 07:50:52;;;;;;;1.33;0.90;;;19.50;38.20;;;;;;4960500;28;20482;-88
2023/01/19 07:53:18;;;;;;;1.17;1.07;;;19.50;38.20;;;;;;4963354;28;20467;-88
2023/01/19 07:55:44;;;;;;;1.43;1.00;;;19.50;38.20;;;;;;4942572;28;20928;-89
2023/01/19 07:58:09;;;;;;;1.20;1.10;;;19.50;38.20;;;;;;4960061;28;20492;-89
2023/01/19 08:00:36;;;;;;;1.03;1.00;;;19.50;38.20;;;;;;4960551;28;20635;-87
2023/01/19 08:03:04;;;;;;;1.17;1.07;;;19.50;38.20;;;;;;4962769;28;20258;-87
2023/01/19 08:05:31;;;;;;;0.90;0.80;;;19.50;38.20;;;;;;4960682;28;20443;-86
2023/01/19 08:07:57;;;;;;;1.10;1.00;;;19.50;38.20;;;;;;4961323;28;20437;-86
2023/01/19 08:10:25;;;;;;;1.17;1.07;;;19.50;38.20;;;;;;4964355;28;20452;-87
2023/01/19 08:12:52;;;;;;;0.87;0.80;;;19.50;38.20;;;;;;4962390;28;20487;-87
2023/01/19 08:15:18;;;;;;;1.00;0.90;;;19.50;38.20;;;;;;4960461;28;20436;-87
2023/01/19 08:17:43;;;;;;;1.37;1.10;;;19.50;38.20;;;;;;4964328;28;20508;-87
2023/01/19 08:20:10;;;;;;;1.10;1.00;;;19.50;38.30;;;;;;4960605;28;20267;-87
2023/01/19 08:22:35;;;;;;;1.10;1.00;;;19.50;38.20;;;;;;4960746;28;20243;-87
2023/01/19 08:25:01;;;;;;;1.37;1.00;;;19.50;38.30;;;;;;4962189;28;20455;-88
2023/01/19 08:27:27;;;;;;;1.20;1.10;;;19.50;38.30;;;;;;4958322;28;20223;-87
2023/01/19 08:29:53;;;;;;;2.10;1.10;;;19.50;38.30;;;;;;4960321;28;20260;-87
2023/01/19 08:32:19;;;;;;;1.30;1.20;;;19.50;38.30;;;;;;4961288;28;20236;-87
2023/01/19 08:34:44;;;;;;;1.10;1.00;;;19.50;38.30;;;;;;4960816;28;21001;-87
2023/01/19 08:37:10;;;;;;;1.10;1.00;;;19.50;38.20;;;;;;4961438;28;20229;-88
2023/01/19 08:39:35;;;;;;;1.40;1.17;;;19.50;38.20;;;;;;4958741;28;20287;-88
2023/01/19 08:42:01;;;;;;;1.10;1.00;;;19.50;38.20;;;;;;4952576;28;20842;-87
2023/01/19 08:44:26;;;;;;;1.33;0.90;;;19.50;38.20;;;;;;4959638;28;20224;-87
2023/01/19 08:46:53;;;;;;;1.00;1.00;;;19.50;38.30;;;;;;4963930;28;20221;-88
2023/01/19 08:49:18;;;;;;;0.90;0.90;;;19.40;38.20;;;;;;4962652;28;20236;-87
2023/01/19 08:51:47;;;;;;;1.30;1.20;;;19.50;38.30;;;;;;4961273;28;20884;-87
2023/01/19 08:54:15;;;;;;;0.87;0.87;;;19.50;38.20;;;;;;4945061;28;20228;-88
2023/01/19 08:56:41;;;;;;;1.03;0.93;;;19.50;38.30;;;;;;4958074;28;20517;-88
2023/01/19 08:59:06;;;;;;;1.20;1.10;;;19.50;38.20;;;;;;4960608;28;22487;-87
2023/01/19 09:01:32;;;;;;;1.33;0.90;;;19.50;38.20;;;;;;4958951;28;20481;-88
2023/01/19 09:03:58;;;;;;;1.20;1.10;;;19.40;38.20;;;;;;4958683;28;20233;-89
2023/01/19 09:06:24;;;;;;;1.23;1.13;;;19.50;38.20;;;;;;4962529;28;20247;-89
2023/01/19 09:08:50;;;;;;;1.00;0.93;;;19.50;38.20;;;;;;4959771;28;20248;-88
2023/01/19 09:11:16;;;;;;;1.13;1.03;;;19.50;38.30;;;;;;4955789;28;20499;-88
2023/01/19 09:13:42;;;;;;;1.10;1.00;;;19.50;38.20;;;;;;4961149;28;20229;-89
2023/01/19 09:16:10;;;;;;;1.10;0.90;;;19.50;38.20;;;;;;4961128;28;20462;-88
2023/01/19 09:18:35;;;;;;;1.20;1.10;;;19.50;38.20;;;;;;4962522;28;20455;-89
2023/01/19 09:21:02;;;;;;;0.97;0.87;;;19.40;38.20;;;;;;4959282;28;20938;-88
2023/01/19 09:23:28;;;;;;;1.13;1.00;;;19.40;39.00;;;;;;4960105;28;22390;-89
2023/01/19 09:25:58;;;;;;;1.00;1.00;;;19.40;38.20;;;;;;4959287;28;20487;-88
2023/01/19 09:28:24;;;;;;;1.10;1.00;;;19.40;38.20;;;;;;4962443;28;20240;-89
2023/01/19 09:30:50;;;;;;;1.00;0.90;;;19.40;38.20;;;;;;4959672;28;20434;-89
2023/01/19 09:33:18;;;;;;;1.33;1.10;;;19.50;38.20;;;;;;4961706;28;20437;-89
2023/01/19 09:35:45;;;;;;;1.10;1.00;;;19.40;38.10;;;;;;4962928;28;20221;-89
2023/01/19 09:38:12;;;;;;;1.30;1.20;;;19.40;38.20;;;;;;4957456;28;20447;-88
2023/01/19 09:40:52;;;;;;;1.20;1.10;;;19.40;38.10;;;;;;4960180;28;20567;-89
2023/01/19 09:43:55;;;;;;;1.10;1.00;;;19.40;38.20;;;;;;4956966;28;20507;-89
2023/01/19 09:46:33;;;;;;;1.13;1.03;;;19.40;38.10;;;;;;4955516;28;20529;-90
2023/01/19 09:49:03;;;;;;;1.30;1.20;;;19.40;38.20;;;;;;4946307;28;20932;-89
2023/01/19 09:51:36;;;;;;;1.10;1.00;;;19.40;38.20;;;;;;4956582;28;20471;-88
2023/01/19 09:54:16;;;;;;;1.20;1.10;;;19.40;38.10;;;;;;4960544;28;20513;-89
2023/01/19 09:56:44;;;;;;;1.30;1.20;;;19.40;38.10;;;;;;4930242;28;20441;-90
2023/01/19 09:59:30;;;;;;;1.20;1.10;;;19.40;38.20;;;;;;4960645;28;20467;-89
2023/01/19 10:02:08;;;;;;;1.23;1.13;;;19.40;38.20;;;;;;4944637;28;20433;-89
2023/01/19 10:05:18;;;;;;;1.23;1.13;;;19.40;38.20;;;;;;4957061;28;20542;-91
2023/01/19 10:08:15;;;;;;;1.10;1.00;;;19.40;38.10;;;;;;4940799;28;20430;-88
2023/01/19 10:10:45;;;;;;;1.17;1.07;;;19.40;38.20;;;;;;4956278;28;20437;-89
2023/01/19 10:13:43;;;;;;;1.10;1.00;;;19.40;38.20;;;;;;4958365;28;20466;-89
2023/01/19 10:16:20;;;;;;;1.27;1.17;;;19.40;38.20;;;;;;4957899;28;20598;-87
2023/01/19 10:18:52;;;;;;;1.40;1.30;;;19.40;38.20;;;;;;4946032;28;20471;-87
2023/01/19 10:21:30;;;;;;;1.10;1.00;;;19.40;38.20;;;;;;4942587;28;20452;-88
2023/01/19 10:24:19;;;;;;;1.30;1.20;;;19.40;38.20;;;;;;4953600;28;20466;-88
2023/01/19 10:26:51;;;;;;;1.10;1.00;;;19.40;38.20;;;;;;4957026;28;20445;-88
2023/01/19 10:29:36;;;;;;;1.50;1.10;;;19.40;38.30;;;;;;4947139;28;20466;-88
2023/01/19 10:32:12;;;;;;;1.10;1.00;;;19.40;38.20;;;;;;4956824;28;20445;-87
2023/01/19 10:34:39;;;;;;;1.20;1.10;;;19.40;38.20;;;;;;4944521;28;20462;-87
2023/01/19 10:37:26;;;;;;;1.20;1.10;;;19.40;38.20;;;;;;4947544;28;20417;-86
2023/01/19 10:39:55;;;;;;;1.10;1.00;;;19.40;38.20;;;;;;4956603;28;20470;-87
2023/01/19 10:42:21;;;;;;;1.20;1.10;;;19.40;38.20;;;;;;4948293;28;20443;-87
2023/01/19 10:44:48;;;;;;;1.00;0.90;;;19.40;38.20;;;;;;4961513;28;20457;-87
2023/01/19 10:47:19;;;;;;;1.20;1.10;;;19.40;38.20;;;;;;4947049;28;20268;-88
2023/01/19 10:49:46;;;;;;;1.20;1.10;;;19.40;39.00;;;;;;4940416;28;20518;-87
2023/01/19 10:52:30;;;;;;;1.13;1.03;;;19.40;38.20;;;;;;4954429;28;20475;-87
2023/01/19 10:54:58;;;;;;;1.00;1.00;;;19.40;38.20;;;;;;4949393;28;20482;-87
2023/01/19 10:57:30;;;;;;;1.80;1.30;;;19.40;38.20;;;;;;4942031;28;20471;-86
2023/01/19 10:59:56;;;;;;;1.20;1.10;;;19.40;38.20;;;;;;4939546;28;20471;-87
2023/01/19 11:02:28;;;;;;;1.40;1.30;;;19.40;38.20;;;;;;4941678;28;20467;-89
2023/01/19 11:04:59;;;;;;;1.20;1.10;;;19.40;38.20;;;;;;4947386;28;20232;-88
2023/01/19 11:07:25;;;;;;;1.10;1.00;;;19.40;38.10;;;;;;4960583;28;20466;-89
2023/01/19 11:10:16;;;;;;;1.40;1.30;;;19.40;39.00;;;;;;4962223;28;20445;-88
2023/01/19 11:13:06;;;;;;;1.20;1.10;;;19.40;38.20;;;;;;4964462;28;20681;-86
2023/01/19 11:15:47;;;;;;;1.07;0.97;;;19.40;38.20;;;;;;4963269;28;20469;-87
2023/01/19 11:18:38;;;;;;;1.30;1.20;;;19.40;38.20;;;;;;4961039;28;20458;-87
2023/01/19 11:21:08;;;;;;;1.20;1.10;;;19.40;38.20;;;;;;4944920;28;20459;-87
2023/01/19 11:23:40;;;;;;;1.47;1.37;;;19.40;38.20;;;;;;4962624;28;20436;-87
2023/01/19 11:26:07;;;;;;;1.20;1.10;;;19.40;38.40;;;;;;4962304;28;20921;-85
2023/01/19 11:28:45;;;;;;;1.20;1.10;;;19.40;38.30;;;;;;4961075;28;20539;-86
2023/01/19 11:31:13;;;;;;;1.20;1.10;;;19.40;38.20;;;;;;4957846;28;21111;-86
2023/01/19 11:33:51;;;;;;;1.57;1.30;;;19.40;38.20;;;;;;4962121;28;20448;-85
2023/01/19 11:36:22;;;;;;;1.40;1.30;;;19.40;38.20;;;;;;4965055;28;20425;-86
2023/01/19 11:38:51;;;;;;;1.43;1.33;;;19.40;38.20;;;;;;4958968;28;21240;-86
2023/01/19 11:41:29;;;;;;;1.20;1.10;;;19.40;38.20;;;;;;4963935;28;20458;-85
2023/01/19 11:43:58;;;;;;;1.20;1.10;;;19.40;38.20;;;;;;4963687;28;20477;-85
2023/01/19 11:46:31;;;;;;;1.20;1.10;;;19.40;38.20;;;;;;4961287;28;20979;-86
2023/01/19 11:49:18;;;;;;;1.20;1.10;;;19.40;38.20;;;;;;4962235;28;20558;-86
2023/01/19 11:51:55;;;;;;;1.40;1.30;;;19.40;38.20;;;;;;4962426;28;20474;-85
2023/01/19 11:54:28;;;;;;;1.10;1.03;;;19.40;38.20;;;;;;4955268;28;20528;-87
2023/01/19 11:56:57;;;;;;;1.27;1.17;;;19.40;38.20;;;;;;4964526;28;20514;-87
2023/01/19 11:59:24;;;;;;;1.30;1.20;;;19.40;38.20;;;;;;4960744;28;20516;-87
2023/01/19 12:01:56;;;;;;;1.20;1.10;;;19.40;38.20;;;;;;4962059;28;20494;-86
2023/01/19 12:04:30;;;;;;;1.63;1.53;;;19.40;38.20;;;;;;4961572;28;20959;-87
2023/01/19 12:06:58;;;;;;;1.37;1.27;;;19.40;38.10;;;;;;4961274;28;21004;-85
2023/01/19 12:09:32;;;;;;;1.40;1.30;;;19.40;38.20;;;;;;4960351;28;21324;-86
2023/01/19 12:12:07;;;;;;;1.20;1.10;;;19.40;38.10;;;;;;4965188;28;26797;-87
2023/01/19 12:14:55;;;;;;;1.30;1.20;;;19.40;38.10;;;;;;4961812;28;20590;-87
2023/01/19 12:17:28;;;;;;;3.17;2.97;;;19.40;38.10;;;;;;4938059;28;20550;-86
2023/01/19 12:20:13;;;;;;;1.50;1.40;;;19.40;38.20;;;;;;4934975;28;20417;-87
2023/01/19 12:22:49;;;;;;;1.40;1.30;;;19.40;38.20;;;;;;4955107;28;20459;-87
2023/01/19 12:25:56;;;;;;;1.40;1.30;;;19.40;38.20;;;;;;4959043;28;20493;-87
2023/01/19 12:28:28;;;;;;;1.40;1.30;;;19.40;38.20;;;;;;4936517;28;20768;-86
2023/01/19 12:30:54;;;;;;;1.40;1.30;;;19.40;38.20;;;;;;4959305;28;20459;-87
2023/01/19 12:33:37;;;;;;;1.50;1.40;;;19.40;38.20;;;;;;4962855;28;21016;-86
2023/01/19 12:36:27;;;;;;;1.33;1.20;;;19.40;38.20;;;;;;4954999;28;20429;-85
2023/01/19 12:39:10;;;;;;;1.57;1.47;;;19.40;38.20;;;;;;4961489;28;20481;-86
2023/01/19 12:41:37;;;;;;;1.33;1.23;;;19.40;38.20;;;;;;4959500;28;20956;-86
2023/01/19 12:44:14;;;;;;;1.20;1.10;;;19.40;38.20;;;;;;4962037;28;20455;-86
2023/01/19 12:46:41;;;;;;;1.30;1.20;;;19.40;38.30;;;;;;4944511;28;20486;-85
2023/01/19 12:49:19;;;;;;;1.33;1.23;;;19.40;39.00;;;;;;4943166;28;21017;-86
2023/01/19 12:51:45;;;;;;;1.40;1.30;;;19.40;38.30;;;;;;4956905;28;20482;-87
2023/01/19 12:54:26;;;;;;;1.40;1.30;;;19.40;38.20;;;;;;4956331;28;20459;-86
2023/01/19 12:56:59;;;;;;;1.60;1.30;;;19.40;38.20;;;;;;4957208;28;20573;-87
2023/01/19 12:59:26;;;;;;;1.20;1.10;;;19.40;38.20;;;;;;4955282;28;20986;-86
2023/01/19 13:02:16;;;;;;;1.50;1.40;;;19.40;38.20;;;;;;4957803;28;20840;-86
2023/01/19 13:05:05;;;;;;;1.43;1.33;;;19.40;39.00;;;;;;4953477;28;20442;-86
2023/01/19 13:08:00;;;;;;;1.17;1.07;;;19.40;38.10;;;;;;4956195;28;20500;-86
2023/01/19 13:11:08;;;;;;;1.60;1.50;;;19.40;38.20;;;;;;4957665;28;20512;-86
2023/01/19 13:13:47;;;;;;;1.70;1.60;;;19.40;38.20;;;;;;4951494;28;21165;-85